
258 participants • 136 Femmes • 122 Hommes
29 licenciés (11%) • 229 non-licenciés (89%)
Temps moyen : 00:28:48
| Position | Nom/Prénom | Tps officiel | Club | Dossard | Catégorie | Km/h | Actions |
|---|---|---|---|---|---|---|---|
| 151 | ROZANE HAYATE | 00:30:51 | AG2R BRUNE | 5075 | M3F (3 / 10) | 9.7 | |
| 152 | GUIHARD EMMA | 00:31:01 | — | 5003 | CAF (7 / 9) | 9.6 | |
| 153 | GUIHARD FREDERIC | 00:31:02 | — | 5002 | M2M (14 / 17) | 9.6 | |
| 154 | ANTOINE CHRISTOPHE | 00:31:02 | UAI CHATENAY-MALABRY | 5218 | M4M (7 / 9) | 9.6 | |
| 155 | TERCERO BLANDINE | 00:31:03 | — | 5055 | SEF (19 / 42) | 9.6 | |
| 156 | BREGEON CAROLINE | 00:31:10 | — | 5099 | JUF (2 / 2) | 9.6 | |
| 157 | VANDEWALLE CHARLES | 00:31:17 | EXPECTRA SEARCH | 5230 | M2M (15 / 17) | 9.5 | |
| 158 | DELAFARGUE VIOLETTE | 00:31:20 | EQUIPE SCIENCES PO PARIS | 5180 | ESF (6 / 15) | 9.5 | |
| 159 | PHILIPPE PIERRICK | 00:31:21 | — | 5018 | M3M (8 / 12) | 9.5 | |
| 160 | RIEG QUENTIN | 00:31:24 | — | 5035 | ESM (3 / 3) | 9.5 | |
| 161 | GODON ESTELLE | 00:31:24 | — | 5036 | SEF (20 / 42) | 9.5 | |
| 162 | JACQUEMIN CORINNE | 00:31:27 | — | 5013 | M5F (4 / 6) | 9.5 | |
| 163 | DIGNEFFE LAURE | 00:31:35 | CLAMART COURSES SUR ROUTE 92 | 5117 | M2F (3 / 13) | 9.5 | |
| 164 | MICHAUD LOELIE | 00:31:35 | — | 5118 | MIF (5 / 6) | 9.4 | |
| 165 | MICHAUD LAURENT | 00:31:35 | — | 5119 | M2M (16 / 17) | 9.4 | |
| 166 | GODON EMILIEN | 00:31:37 | JSP | 5084 | SEM (22 / 28) | 9.4 | |
| 167 | RAPP CHLOE | 00:31:47 | — | 5027 | MIF (6 / 6) | 9.4 | |
| 168 | MARZE CHRISTINE | 00:31:48 | — | 5026 | M2F (4 / 13) | 9.4 | |
| 169 | ALEGRIA INES | 00:31:51 | EQUIPE SCIENCES PO PARIS | 5202 | ESF (7 / 15) | 9.4 | |
| 170 | BERRI FREDERIC | 00:31:58 | — | 5216 | M2M (17 / 17) | 9.3 | |
| 171 | DEES STELLA | 00:32:01 | — | 5028 | SEF (21 / 42) | 9.3 | |
| 172 | VILLAND FRANCK | 00:32:05 | — | 5165 | M3M (9 / 12) | 9.3 | |
| 173 | SANCHEZ SARMIENTO DAVID ANDRES | 00:32:13 | — | 5108 | SEM (23 / 28) | 9.3 | |
| 174 | CROUPAT ALEXANDRA | 00:32:13 | — | 5110 | M2F (5 / 13) | 9.3 | |
| 175 | GRAIGNIC ANA | 00:32:13 | — | 5197 | MIM (11 / 12) | 9.3 | |
| 176 | GIROUX ISABELLE | 00:32:13 | CLAMART COURSES SUR ROUTE 92 | 5088 | M2F (6 / 13) | 9.3 | |
| 177 | PINA MATHILDE | 00:32:19 | — | 536 | ESF (8 / 15) | 9.2 | |
| 178 | CIARLET-LAMOUR EMMA | 00:32:19 | — | 5020 | ESF (9 / 15) | 9.2 | |
| 179 | LAMOUR FRANCOISE | 00:32:19 | — | 5019 | M5F (5 / 6) | 9.2 | |
| 180 | ROUSSELLE MARIE | 00:32:19 | — | 31 | SEF (22 / 42) | 9.2 | |
| 181 | MANCHE-THOUMIEUX SYLVIE | 00:32:22 | — | 5206 | M1F (5 / 14) | 9.2 | |
| 182 | CHAMS EDDINE MOKDAD | 00:32:25 | — | 5137 | M0M (10 / 10) | 9.2 | |
| 183 | BLAISE JEAN-YVES | 00:32:27 | — | 5004 | M3M (10 / 12) | 9.2 | |
| 184 | BLAISE PIERRICK | 00:32:27 | — | 5244 | MIM (12 / 12) | 9.2 | |
| 185 | LECOMTE EVAN | 00:32:30 | — | 5080 | JUM (4 / 4) | 9.2 | |
| 186 | GLADIEU ERIC | 00:32:30 | — | 5037 | M5M (1 / 2) | 9.2 | |
| 187 | GILLARD ISABELLE | 00:32:37 | — | 5041 | M5F (6 / 6) | 9.1 | |
| 188 | KERHELLO MAURINE | 00:32:45 | EQUIPE SCIENCES PO PARIS | 5235 | ESF (10 / 15) | 9.1 | |
| 189 | BOTCHERBY CARLA | 00:32:46 | — | 5224 | SEF (23 / 42) | 9.1 | |
| 190 | PENNEQUIN LAURE | 00:32:47 | — | 5154 | SEF (24 / 42) | 9.1 | |
| 191 | KHMELEVSKAYA INNA | 00:32:47 | — | 5231 | M1F (6 / 14) | 9.1 | |
| 192 | GUIHAIRE CECILE | 00:32:48 | — | 5185 | M1F (7 / 14) | 9.1 | |
| 193 | FABRE PIERRE | 00:33:00 | SOCIETE ORANO | 5008 | M3M (11 / 12) | 9.0 | |
| 194 | FRANCOIS INES | 00:33:00 | — | 5223 | ESF (11 / 15) | 9.0 | |
| 195 | MORICEAU JULIE | 00:33:02 | — | 5184 | M1F (8 / 14) | 9.0 | |
| 196 | SAHIL ANNE | 00:33:13 | — | 5031 | M3F (4 / 10) | 9.0 | |
| 197 | BALCON CATHY | 00:33:16 | HANDFIT FONTENAY AUX ROSES | 5187 | M2F (7 / 13) | 9.0 | |
| 198 | NGUYEN SOPHIE | 00:33:20 | — | 549 | M2F (8 / 13) | 9.0 | |
| 199 | CORRE ANNE-CECILE | 00:33:21 | — | 5157 | M1F (9 / 14) | 8.9 | |
| 200 | HEIB CAROLINE | 00:33:27 | — | 5176 | M3F (5 / 10) | 8.9 |